Time;durP1;ratioP1;P1;durP2;ratioP2;P2;SDS_P1;SDS_P2;PMS_P1;PMS_P2;Temp;Humidity;BMP_temperature;BMP_pressure;BME280_temperature;BME280_humidity;BME280_pressure;Samples;Min_cycle;Max_cycle;Signal;HPM_P1;HPM_P2
2021/01/23 00:03:28;;;;;;;16.77;6.20;;;;;;;;;;10220357;28;20564;-76
2021/01/23 00:08:30;;;;;;;15.77;6.53;;;;;;;;;;10227335;28;20245;-76
2021/01/23 00:13:32;;;;;;;11.53;6.37;;;;;;;;;;10219694;28;20241;-76
2021/01/23 00:18:34;;;;;;;13.03;5.73;;;;;;;;;;10222724;28;20226;-76
2021/01/23 00:23:37;;;;;;;14.67;6.53;;;;;;;;;;10226696;28;20220;-76
2021/01/23 00:28:38;;;;;;;14.10;5.80;;;;;;;;;;10225386;28;20630;-77
2021/01/23 00:33:41;;;;;;;14.30;5.77;;;;;;;;;;10223681;28;20269;-77
2021/01/23 00:38:44;;;;;;;14.07;6.17;;;;;;;;;;10223227;28;20226;-76
2021/01/23 00:43:46;;;;;;;11.13;5.57;;;;;;;;;;10224316;28;20215;-76
2021/01/23 00:48:49;;;;;;;13.73;5.70;;;;;;;;;;10223929;28;20242;-77
2021/01/23 00:53:51;;;;;;;10.87;5.80;;;;;;;;;;10222441;28;20234;-77
2021/01/23 00:58:53;;;;;;;15.03;5.60;;;;;;;;;;10229542;28;20230;-76
2021/01/23 01:03:55;;;;;;;13.50;5.80;;;;;;;;;;10229475;28;20229;-76
2021/01/23 01:08:57;;;;;;;14.67;5.80;;;;;;;;;;10221607;28;20219;-76
2021/01/23 01:13:59;;;;;;;11.77;5.60;;;;;;;;;;10220571;28;20824;-77
2021/01/23 01:19:02;;;;;;;10.83;5.57;;;;;;;;;;10223400;28;20238;-76
2021/01/23 01:24:04;;;;;;;13.13;5.40;;;;;;;;;;10210066;28;20260;-76
2021/01/23 01:29:06;;;;;;;12.53;5.77;;;;;;;;;;10214047;28;20241;-76
2021/01/23 01:34:09;;;;;;;15.10;6.00;;;;;;;;;;10219895;28;20243;-76
2021/01/23 01:39:11;;;;;;;14.50;5.50;;;;;;;;;;10225791;28;20226;-76
2021/01/23 01:44:12;;;;;;;13.47;6.00;;;;;;;;;;10222493;28;20642;-76
2021/01/23 01:49:15;;;;;;;14.20;5.20;;;;;;;;;;10219383;28;20210;-77
2021/01/23 01:54:18;;;;;;;11.93;5.77;;;;;;;;;;10227407;28;20601;-75
2021/01/23 01:59:20;;;;;;;12.83;5.37;;;;;;;;;;10221587;28;20226;-76
2021/01/23 02:04:27;;;;;;;9.03;5.57;;;;;;;;;;10225135;28;20318;-77
2021/01/23 02:09:35;;;;;;;14.00;6.00;;;;;;;;;;10217217;28;20218;-76
2021/01/23 02:14:44;;;;;;;10.17;6.03;;;;;;;;;;10221995;28;20606;-76
2021/01/23 02:19:59;;;;;;;19.87;6.33;;;;;;;;;;10218108;28;20339;-76
2021/01/23 02:25:02;;;;;;;12.47;5.97;;;;;;;;;;10221329;28;20704;-76
2021/01/23 02:30:11;;;;;;;13.17;6.10;;;;;;;;;;10215384;28;20821;-75
2021/01/23 02:35:15;;;;;;;12.00;6.03;;;;;;;;;;10219294;28;20238;-76
2021/01/23 02:40:17;;;;;;;12.93;5.80;;;;;;;;;;10218219;28;20316;-76
2021/01/23 02:45:19;;;;;;;11.73;5.80;;;;;;;;;;10220000;28;20926;-76
2021/01/23 02:50:23;;;;;;;16.40;6.00;;;;;;;;;;10217502;28;20318;-76
2021/01/23 02:55:29;;;;;;;12.03;6.00;;;;;;;;;;10215061;28;20254;-76
2021/01/23 03:00:31;;;;;;;11.23;6.20;;;;;;;;;;10218930;28;20227;-76
2021/01/23 03:05:35;;;;;;;15.23;6.17;;;;;;;;;;10217343;28;20207;-76
2021/01/23 03:10:38;;;;;;;10.67;5.90;;;;;;;;;;10220595;28;20285;-76
2021/01/23 03:15:40;;;;;;;9.83;5.87;;;;;;;;;;10213799;28;21025;-76
2021/01/23 03:20:42;;;;;;;12.20;6.43;;;;;;;;;;10219826;28;20211;-76
2021/01/23 03:25:44;;;;;;;12.33;6.73;;;;;;;;;;10214362;28;20579;-76
2021/01/23 03:30:46;;;;;;;13.53;6.47;;;;;;;;;;10220463;28;20306;-76
2021/01/23 03:35:49;;;;;;;13.67;6.50;;;;;;;;;;10214402;28;20242;-76
2021/01/23 03:40:51;;;;;;;11.43;6.30;;;;;;;;;;10222233;28;20687;-77
2021/01/23 03:45:53;;;;;;;13.10;6.13;;;;;;;;;;10212075;28;20242;-76
2021/01/23 03:50:56;;;;;;;12.50;6.07;;;;;;;;;;10210635;28;20595;-77
2021/01/23 03:55:58;;;;;;;13.43;6.27;;;;;;;;;;10220975;28;20241;-77
2021/01/23 04:01:00;;;;;;;9.77;5.97;;;;;;;;;;10207391;28;20230;-77
2021/01/23 04:06:03;;;;;;;10.47;6.30;;;;;;;;;;10223148;28;20215;-76
2021/01/23 04:11:05;;;;;;;12.53;6.60;;;;;;;;;;10211855;28;20214;-77
2021/01/23 04:16:07;;;;;;;11.80;6.17;;;;;;;;;;10222808;28;20618;-77
2021/01/23 04:21:10;;;;;;;14.27;6.10;;;;;;;;;;10211287;28;20678;-77
2021/01/23 04:26:12;;;;;;;14.37;6.20;;;;;;;;;;10211410;28;20203;-77
2021/01/23 04:31:14;;;;;;;11.77;5.97;;;;;;;;;;10213858;28;20270;-76
2021/01/23 04:36:17;;;;;;;13.37;6.20;;;;;;;;;;10215758;28;20249;-76
2021/01/23 04:41:19;;;;;;;13.47;6.30;;;;;;;;;;10216203;28;20664;-77
2021/01/23 04:46:21;;;;;;;13.80;6.10;;;;;;;;;;10213462;28;20216;-75
2021/01/23 04:51:26;;;;;;;11.17;6.30;;;;;;;;;;10218510;28;20215;-76
2021/01/23 04:56:27;;;;;;;9.90;5.60;;;;;;;;;;10214518;28;20239;-76
2021/01/23 05:01:29;;;;;;;10.33;6.33;;;;;;;;;;10209988;28;20415;-77
2021/01/23 05:06:32;;;;;;;10.97;5.80;;;;;;;;;;10214038;28;20297;-76
2021/01/23 05:11:44;;;;;;;8.53;5.63;;;;;;;;;;10215127;28;20253;-76
2021/01/23 05:16:45;;;;;;;12.07;5.27;;;;;;;;;;10213579;28;20242;-76
2021/01/23 05:22:01;;;;;;;10.60;5.63;;;;;;;;;;10205862;28;20226;-75
2021/01/23 05:27:02;;;;;;;9.10;5.00;;;;;;;;;;10211998;28;20225;-76
2021/01/23 05:32:15;;;;;;;9.80;4.90;;;;;;;;;;10212121;28;20286;-76
2021/01/23 05:37:37;;;;;;;10.27;5.17;;;;;;;;;;10211811;28;20332;-76
2021/01/23 05:42:42;;;;;;;11.10;4.80;;;;;;;;;;10212675;28;20222;-77
2021/01/23 05:47:44;;;;;;;8.50;4.73;;;;;;;;;;10208532;28;20692;-75
2021/01/23 05:52:47;;;;;;;9.40;4.20;;;;;;;;;;10216190;28;20527;-76
2021/01/23 05:57:49;;;;;;;7.03;4.40;;;;;;;;;;10211021;28;20701;-76
2021/01/23 06:02:51;;;;;;;7.37;4.00;;;;;;;;;;10211693;28;20366;-76
2021/01/23 06:07:54;;;;;;;7.73;4.00;;;;;;;;;;10212903;28;20220;-76
2021/01/23 06:12:56;;;;;;;6.17;4.10;;;;;;;;;;10210474;28;20219;-76
2021/01/23 06:17:58;;;;;;;8.30;4.10;;;;;;;;;;10219789;28;20219;-76
2021/01/23 06:23:01;;;;;;;6.97;4.20;;;;;;;;;;10218830;28;20581;-76
2021/01/23 06:28:03;;;;;;;8.40;4.17;;;;;;;;;;10219642;28;20776;-77
2021/01/23 06:33:24;;;;;;;8.80;4.13;;;;;;;;;;10213813;28;20239;-76
2021/01/23 06:38:27;;;;;;;7.30;4.30;;;;;;;;;;10218685;28;20211;-77
2021/01/23 06:43:28;;;;;;;6.67;3.73;;;;;;;;;;10219266;28;20339;-76
2021/01/23 06:48:30;;;;;;;6.63;3.80;;;;;;;;;;10217185;28;20691;-77
2021/01/23 06:53:37;;;;;;;8.80;3.93;;;;;;;;;;10220076;28;20606;-76
2021/01/23 06:58:39;;;;;;;8.60;4.17;;;;;;;;;;10217547;28;20226;-76
2021/01/23 07:03:41;;;;;;;8.23;4.07;;;;;;;;;;10217759;28;20226;-76
2021/01/23 07:08:47;;;;;;;6.50;3.80;;;;;;;;;;10216346;28;20208;-77
2021/01/23 07:13:56;;;;;;;6.03;3.57;;;;;;;;;;10217277;28;20258;-76
2021/01/23 07:18:59;;;;;;;9.27;4.00;;;;;;;;;;10222388;28;20219;-77
2021/01/23 07:24:02;;;;;;;6.17;4.03;;;;;;;;;;10218787;28;20596;-77
2021/01/23 07:29:05;;;;;;;8.83;4.40;;;;;;;;;;10226248;28;20226;-77
2021/01/23 07:34:11;;;;;;;8.03;4.57;;;;;;;;;;10218389;28;20585;-77
2021/01/23 07:39:17;;;;;;;8.03;4.80;;;;;;;;;;10215863;28;20426;-77
2021/01/23 07:44:20;;;;;;;8.23;4.37;;;;;;;;;;10215813;28;20230;-77
2021/01/23 07:49:23;;;;;;;8.20;4.60;;;;;;;;;;10218430;28;20675;-77
2021/01/23 07:54:26;;;;;;;7.37;4.17;;;;;;;;;;10212544;28;20243;-75
2021/01/23 07:59:45;;;;;;;10.53;5.17;;;;;;;;;;10213706;28;20615;-77
2021/01/23 08:04:48;;;;;;;9.13;4.40;;;;;;;;;;10212258;28;20222;-77
2021/01/23 08:10:07;;;;;;;9.73;4.80;;;;;;;;;;10214645;28;20599;-76
2021/01/23 08:15:10;;;;;;;8.30;4.67;;;;;;;;;;10214732;28;20630;-75
2021/01/23 08:20:13;;;;;;;12.17;5.30;;;;;;;;;;10208098;28;20497;-76
2021/01/23 08:25:26;;;;;;;8.23;5.17;;;;;;;;;;10214735;28;20219;-76
2021/01/23 08:30:28;;;;;;;8.13;4.33;;;;;;;;;;10210324;28;20230;-76
2021/01/23 08:35:34;;;;;;;8.07;4.07;;;;;;;;;;10214922;28;20238;-77
2021/01/23 08:40:37;;;;;;;8.87;4.00;;;;;;;;;;10211948;28;20222;-76
2021/01/23 08:45:39;;;;;;;8.23;4.17;;;;;;;;;;10213821;28;20225;-78
2021/01/23 08:50:41;;;;;;;10.33;4.00;;;;;;;;;;10218694;28;20219;-77
2021/01/23 08:55:44;;;;;;;10.00;4.03;;;;;;;;;;10215962;28;20297;-77
2021/01/23 09:00:45;;;;;;;5.83;3.60;;;;;;;;;;10213686;28;20723;-77
2021/01/23 09:05:48;;;;;;;8.47;3.60;;;;;;;;;;10211845;28;20227;-77
2021/01/23 09:10:51;;;;;;;6.77;3.70;;;;;;;;;;10212079;28;20285;-76
2021/01/23 09:15:53;;;;;;;6.90;3.83;;;;;;;;;;10212924;28;20716;-84
2021/01/23 09:20:54;;;;;;;10.63;3.70;;;;;;;;;;10210831;28;20211;-75
2021/01/23 09:25:59;;;;;;;7.20;3.67;;;;;;;;;;10207767;28;20226;-75
2021/01/23 09:31:00;;;;;;;6.03;3.57;;;;;;;;;;10204557;28;20246;-76
2021/01/23 09:36:02;;;;;;;8.90;3.80;;;;;;;;;;10206463;28;20250;-77
2021/01/23 09:41:06;;;;;;;10.77;3.83;;;;;;;;;;10209374;28;20687;-77
2021/01/23 09:46:08;;;;;;;6.27;3.50;;;;;;;;;;10213082;28;20608;-75
2021/01/23 09:51:09;;;;;;;9.57;3.90;;;;;;;;;;10207855;28;20424;-76
2021/01/23 09:56:12;;;;;;;9.13;3.87;;;;;;;;;;10217281;28;20739;-78
2021/01/23 10:01:16;;;;;;;10.03;3.57;;;;;;;;;;10219892;28;20290;-78
2021/01/23 10:06:18;;;;;;;10.63;3.87;;;;;;;;;;10223859;28;20235;-78
2021/01/23 10:11:23;;;;;;;10.53;4.10;;;;;;;;;;10218834;28;20570;-78
2021/01/23 10:16:25;;;;;;;8.63;3.70;;;;;;;;;;10220553;28;20327;-78
2021/01/23 10:21:27;;;;;;;7.90;4.10;;;;;;;;;;10222344;28;20222;-78
2021/01/23 10:26:31;;;;;;;9.20;3.60;;;;;;;;;;10215853;28;20223;-78
2021/01/23 10:31:36;;;;;;;7.40;3.67;;;;;;;;;;10218360;28;20211;-78
2021/01/23 10:36:39;;;;;;;8.73;3.40;;;;;;;;;;10219625;28;20257;-77
2021/01/23 10:41:41;;;;;;;10.93;4.20;;;;;;;;;;10222445;28;20580;-76
2021/01/23 10:46:43;;;;;;;7.20;3.60;;;;;;;;;;10223423;28;20227;-76
2021/01/23 10:51:45;;;;;;;10.50;3.97;;;;;;;;;;10218992;28;20305;-76
2021/01/23 10:56:48;;;;;;;12.47;4.03;;;;;;;;;;10215547;28;20363;-77
2021/01/23 11:01:50;;;;;;;6.97;3.77;;;;;;;;;;10213455;28;20679;-75
2021/01/23 11:06:55;;;;;;;6.33;3.73;;;;;;;;;;10213650;28;20224;-79
2021/01/23 11:11:58;;;;;;;9.87;4.43;;;;;;;;;;10214217;28;20673;-76
2021/01/23 11:16:59;;;;;;;10.83;4.20;;;;;;;;;;10214287;28;20321;-75
2021/01/23 11:22:01;;;;;;;9.17;4.20;;;;;;;;;;10218033;28;20539;-77
2021/01/23 11:27:04;;;;;;;9.57;4.20;;;;;;;;;;10204382;28;20330;-75
2021/01/23 11:32:19;;;;;;;8.47;4.20;;;;;;;;;;10209356;28;21684;-74
2021/01/23 11:37:21;;;;;;;10.47;4.40;;;;;;;;;;10206945;28;20453;-75
2021/01/23 11:42:24;;;;;;;9.50;4.90;;;;;;;;;;10211731;28;20217;-76
2021/01/23 11:47:26;;;;;;;7.60;4.47;;;;;;;;;;10207569;28;20552;-76
2021/01/23 11:52:28;;;;;;;10.30;5.10;;;;;;;;;;10207053;28;20221;-74
2021/01/23 11:57:31;;;;;;;7.93;4.60;;;;;;;;;;10205858;28;20751;-77
2021/01/23 12:02:32;;;;;;;8.47;4.70;;;;;;;;;;10202739;28;20215;-76
2021/01/23 12:07:35;;;;;;;8.20;4.90;;;;;;;;;;10216469;28;20862;-76
2021/01/23 12:12:38;;;;;;;8.50;4.87;;;;;;;;;;10212488;28;20227;-75
2021/01/23 12:17:40;;;;;;;8.00;3.80;;;;;;;;;;10214528;28;20527;-75
2021/01/23 12:22:43;;;;;;;8.40;3.87;;;;;;;;;;10215298;28;20593;-75
2021/01/23 12:27:46;;;;;;;6.50;3.90;;;;;;;;;;10215499;28;20711;-75
2021/01/23 12:32:49;;;;;;;11.50;3.83;;;;;;;;;;10208306;28;20235;-78
2021/01/23 12:37:58;;;;;;;57.73;32.87;;;;;;;;;;10213843;28;20246;-75
2021/01/23 12:43:01;;;;;;;14.33;8.23;;;;;;;;;;10209296;28;20241;-74
2021/01/23 12:48:02;;;;;;;9.93;5.00;;;;;;;;;;10210532;28;20225;-74
2021/01/23 12:53:07;;;;;;;7.50;4.03;;;;;;;;;;10200751;28;20301;-74
2021/01/23 12:58:10;;;;;;;6.73;4.13;;;;;;;;;;10207215;28;20345;-72
2021/01/23 13:03:11;;;;;;;6.97;3.73;;;;;;;;;;10207922;28;20214;-75
2021/01/23 13:08:13;;;;;;;6.97;3.23;;;;;;;;;;10206660;28;20215;-75
2021/01/23 13:13:16;;;;;;;7.20;3.30;;;;;;;;;;10208858;28;20366;-75
2021/01/23 13:18:18;;;;;;;6.73;3.40;;;;;;;;;;10209124;28;20738;-75
2021/01/23 13:23:20;;;;;;;9.33;4.00;;;;;;;;;;10211166;28;20222;-74
2021/01/23 13:28:23;;;;;;;10.60;3.77;;;;;;;;;;10212698;28;20218;-74
2021/01/23 13:33:25;;;;;;;8.27;3.73;;;;;;;;;;10229625;28;20319;-74
2021/01/23 13:38:27;;;;;;;6.63;3.67;;;;;;;;;;10222972;28;20238;-74
2021/01/23 13:43:30;;;;;;;8.00;3.93;;;;;;;;;;10220275;28;20214;-74
2021/01/23 13:48:32;;;;;;;6.27;3.90;;;;;;;;;;10220092;28;20702;-75
2021/01/23 13:53:35;;;;;;;7.70;4.07;;;;;;;;;;10221091;28;20210;-73
2021/01/23 13:58:39;;;;;;;7.47;4.03;;;;;;;;;;10218663;28;20234;-74
2021/01/23 14:03:41;;;;;;;8.90;3.97;;;;;;;;;;10217810;28;20711;-74
2021/01/23 14:08:43;;;;;;;10.23;4.33;;;;;;;;;;10220105;28;20211;-75
2021/01/23 14:13:46;;;;;;;8.47;4.60;;;;;;;;;;10216253;28;20758;-74
2021/01/23 14:18:48;;;;;;;8.13;4.20;;;;;;;;;;10216994;28;20219;-75
2021/01/23 14:23:50;;;;;;;8.97;4.40;;;;;;;;;;10224257;28;20219;-76
2021/01/23 14:28:52;;;;;;;11.47;4.73;;;;;;;;;;10217644;28;20547;-76
2021/01/23 14:33:54;;;;;;;10.37;5.50;;;;;;;;;;10226643;28;20237;-75
2021/01/23 14:38:56;;;;;;;9.37;4.73;;;;;;;;;;10216910;28;20211;-75
2021/01/23 14:43:59;;;;;;;8.33;4.20;;;;;;;;;;10217619;28;20281;-75
2021/01/23 14:49:00;;;;;;;7.70;4.17;;;;;;;;;;10212287;28;20219;-76
2021/01/23 14:54:03;;;;;;;8.03;4.00;;;;;;;;;;10215382;28;20225;-79
2021/01/23 14:59:09;;;;;;;8.20;4.20;;;;;;;;;;10207312;28;20223;-76
2021/01/23 15:04:11;;;;;;;6.37;3.80;;;;;;;;;;10208841;28;20227;-76
2021/01/23 15:09:13;;;;;;;6.40;3.67;;;;;;;;;;10213251;28;20216;-75
2021/01/23 15:14:16;;;;;;;9.90;4.07;;;;;;;;;;10209918;28;20982;-74
2021/01/23 15:19:18;;;;;;;6.90;3.90;;;;;;;;;;10209267;28;20226;-75
2021/01/23 15:24:20;;;;;;;7.90;3.80;;;;;;;;;;10210670;28;20676;-76
2021/01/23 15:29:22;;;;;;;7.83;4.00;;;;;;;;;;10195155;28;20215;-76
2021/01/23 15:34:24;;;;;;;11.17;4.70;;;;;;;;;;10199613;28;20249;-76
2021/01/23 15:39:29;;;;;;;7.63;4.30;;;;;;;;;;10213924;28;20219;-78
2021/01/23 15:44:32;;;;;;;11.03;5.13;;;;;;;;;;10211220;28;21006;-76
2021/01/23 15:49:34;;;;;;;9.93;4.93;;;;;;;;;;10207946;28;20218;-75
2021/01/23 15:54:36;;;;;;;10.63;5.33;;;;;;;;;;10212533;28;20728;-75
2021/01/23 15:59:39;;;;;;;8.43;5.43;;;;;;;;;;10210875;28;20227;-74
2021/01/23 16:04:41;;;;;;;10.30;5.70;;;;;;;;;;10204495;28;20219;-76
2021/01/23 16:09:45;;;;;;;11.70;6.30;;;;;;;;;;10215127;28;23050;-74
2021/01/23 16:14:47;;;;;;;11.43;6.63;;;;;;;;;;10209411;28;20253;-75
2021/01/23 16:19:49;;;;;;;12.80;6.57;;;;;;;;;;10209573;28;20579;-74
2021/01/23 16:24:51;;;;;;;9.87;5.93;;;;;;;;;;10214652;28;20680;-76
2021/01/23 16:29:55;;;;;;;9.10;5.57;;;;;;;;;;10214919;28;20310;-87
2021/01/23 16:34:57;;;;;;;13.13;6.63;;;;;;;;;;10214293;28;20561;-78
2021/01/23 16:40:04;;;;;;;11.13;6.17;;;;;;;;;;10211243;28;20222;-79
2021/01/23 16:45:08;;;;;;;14.70;6.43;;;;;;;;;;10214386;28;20243;-82
2021/01/23 16:50:11;;;;;;;14.17;6.30;;;;;;;;;;10208950;28;20309;-77
2021/01/23 16:55:13;;;;;;;9.27;6.00;;;;;;;;;;10207020;28;20250;-77
2021/01/23 17:00:18;;;;;;;11.27;6.20;;;;;;;;;;10190497;28;20737;-77
2021/01/23 23:10:34;;;;;;;20.97;8.00;;;;;;;;;;10279765;28;20595;-74
2021/01/23 23:15:36;;;;;;;13.70;7.70;;;;;;;;;;10286856;28;20244;-74
2021/01/23 23:20:38;;;;;;;16.83;8.37;;;;;;;;;;10282401;28;20226;-75
2021/01/23 23:25:43;;;;;;;14.13;7.60;;;;;;;;;;10286574;28;20217;-75
2021/01/23 23:30:45;;;;;;;14.60;7.10;;;;;;;;;;10280160;28;20224;-76
2021/01/23 23:35:47;;;;;;;11.40;6.47;;;;;;;;;;10283442;28;20605;-75
2021/01/23 23:40:49;;;;;;;12.93;7.33;;;;;;;;;;10272450;28;20765;-75
2021/01/23 23:45:51;;;;;;;16.33;7.50;;;;;;;;;;10284717;28;20224;-75
2021/01/23 23:50:53;;;;;;;16.73;7.70;;;;;;;;;;10283806;28;20213;-76
2021/01/23 23:55:56;;;;;;;13.97;7.37;;;;;;;;;;10273500;28;20675;-75
